Time,TemperatureF,DewpointF,PressureIn,WindDirection,WindDirectionDegrees,WindSpeedMPH,WindSpeedGustMPH,Humidity,HourlyPrecipIn,Conditions,Clouds,dailyrainin,SolarRadiationWatts/m^2,SoftwareType,DateUTC
2013-04-23 00:02:00,30.0,22.0,-100.00,NNW,329,3.0,6.0,72,0.00,,,0.08,0.000000,,2013-04-23 05:02:00,
2013-04-23 00:22:00,30.0,22.0,-100.00,NNW,337,2.0,5.0,71,0.00,,,0.07,0.000000,,2013-04-23 05:22:00,
2013-04-23 00:32:00,30.0,22.0,-100.00,NNW,337,2.0,5.0,71,0.00,,,0.07,0.000000,,2013-04-23 05:32:00,
2013-04-23 00:42:00,30.0,22.0,-100.00,NNW,337,2.0,5.0,71,0.00,,,0.07,0.000000,,2013-04-23 05:42:00,
2013-04-23 00:52:00,30.0,22.0,-100.00,NNW,337,2.0,5.0,71,0.00,,,0.07,0.000000,,2013-04-23 05:52:00,
2013-04-23 01:01:00,30.0,22.0,-100.00,NNW,337,2.0,5.0,71,0.00,,,0.07,0.000000,,2013-04-23 06:01:00,
2013-04-23 01:22:00,29.0,22.0,-100.00,NNW,345,3.0,6.0,74,0.00,,,0.06,0.000000,,2013-04-23 06:22:00,
2013-04-23 01:33:00,29.0,22.0,-100.00,NNW,345,3.0,6.0,74,0.00,,,0.06,0.000000,,2013-04-23 06:33:00,
2013-04-23 01:42:00,29.0,22.0,-100.00,NNW,345,3.0,6.0,74,0.00,,,0.06,0.000000,,2013-04-23 06:42:00,
2013-04-23 01:52:00,29.0,22.0,-100.00,NNW,345,3.0,6.0,74,0.00,,,0.06,0.000000,,2013-04-23 06:52:00,
2013-04-23 02:02:00,29.0,22.0,-100.00,NNW,345,3.0,6.0,74,0.00,,,0.06,0.000000,,2013-04-23 07:02:00,
2013-04-23 02:22:00,29.0,21.0,-100.00,NE,35,4.0,9.0,71,0.00,,,0.06,0.000000,,2013-04-23 07:22:00,
2013-04-23 02:32:00,29.0,21.0,-100.00,NE,35,4.0,9.0,71,0.00,,,0.06,0.000000,,2013-04-23 07:32:00,
2013-04-23 02:42:00,29.0,21.0,-100.00,NE,35,4.0,9.0,71,0.00,,,0.06,0.000000,,2013-04-23 07:42:00,
2013-04-23 02:52:00,29.0,21.0,-100.00,NE,35,4.0,9.0,71,0.00,,,0.06,0.000000,,2013-04-23 07:52:00,
2013-04-23 03:02:00,29.0,21.0,-100.00,NE,35,4.0,9.0,71,0.00,,,0.06,0.000000,,2013-04-23 08:02:00,
2013-04-23 03:32:00,29.0,21.0,-100.00,NNE,30,4.0,9.0,72,0.00,,,0.06,0.000000,,2013-04-23 08:32:00,
2013-04-23 03:42:00,29.0,21.0,-100.00,NNE,30,4.0,9.0,72,0.00,,,0.06,0.000000,,2013-04-23 08:42:00,
2013-04-23 03:52:00,29.0,21.0,-100.00,NNE,30,4.0,9.0,72,0.00,,,0.06,0.000000,,2013-04-23 08:52:00,
2013-04-23 04:01:00,29.0,21.0,-100.00,NNE,30,4.0,9.0,72,0.00,,,0.06,0.000000,,2013-04-23 09:01:00,
2013-04-23 04:33:00,28.0,19.0,-100.00,NNE,32,4.0,9.0,69,0.00,,,0.06,0.000000,,2013-04-23 09:33:00,
2013-04-23 04:43:00,28.0,19.0,-100.00,NNE,32,4.0,9.0,69,0.00,,,0.06,0.000000,,2013-04-23 09:43:00,
2013-04-23 04:53:00,28.0,19.0,-100.00,NNE,32,4.0,9.0,69,0.00,,,0.06,0.000000,,2013-04-23 09:53:00,
2013-04-23 05:02:00,28.0,19.0,-100.00,NNE,32,4.0,9.0,69,0.00,,,0.06,0.000000,,2013-04-23 10:02:00,
2013-04-23 05:33:00,28.0,20.0,-100.00,North,351,3.0,7.0,70,0.00,,,0.06,0.000000,,2013-04-23 10:33:00,
2013-04-23 05:43:00,28.0,20.0,-100.00,North,351,3.0,7.0,70,0.00,,,0.06,0.000000,,2013-04-23 10:43:00,
2013-04-23 05:52:00,28.0,20.0,-100.00,North,351,3.0,7.0,70,0.00,,,0.06,0.000000,,2013-04-23 10:52:00,
2013-04-23 06:03:00,28.0,20.0,-100.00,North,351,3.0,7.0,70,0.00,,,0.06,0.000000,,2013-04-23 11:03:00,
2013-04-23 06:22:00,26.0,18.0,-100.00,NNW,342,4.0,6.0,72,0.00,,,0.06,0.000000,,2013-04-23 11:22:00,
2013-04-23 06:32:00,26.0,18.0,-100.00,NNW,342,4.0,6.0,72,0.00,,,0.06,0.000000,,2013-04-23 11:32:00,
2013-04-23 06:43:00,26.0,18.0,-100.00,NNW,342,4.0,6.0,72,0.00,,,0.06,0.000000,,2013-04-23 11:43:00,
2013-04-23 06:53:00,26.0,18.0,-100.00,NNW,342,4.0,6.0,72,0.00,,,0.06,0.000000,,2013-04-23 11:53:00,
2013-04-23 07:02:00,26.0,18.0,-100.00,NNW,342,4.0,6.0,72,0.00,,,0.06,0.000000,,2013-04-23 12:02:00,
2013-04-23 07:32:00,25.0,19.0,-100.00,NNW,331,3.0,7.0,76,0.00,,,0.06,27.000000,,2013-04-23 12:32:00,
2013-04-23 07:42:00,25.0,19.0,-100.00,NNW,331,3.0,7.0,76,0.00,,,0.06,27.000000,,2013-04-23 12:42:00,
2013-04-23 07:52:00,25.0,19.0,-100.00,NNW,331,3.0,7.0,76,0.00,,,0.06,27.000000,,2013-04-23 12:52:00,
2013-04-23 08:01:00,25.0,19.0,-100.00,NNW,331,3.0,7.0,76,0.00,,,0.06,27.000000,,2013-04-23 13:01:00,
2013-04-23 08:22:00,32.0,21.0,-100.00,NNW,344,5.0,8.0,63,0.00,,,0.05,218.000000,,2013-04-23 13:22:00,
2013-04-23 08:32:00,32.0,21.0,-100.00,NNW,344,5.0,8.0,63,0.00,,,0.05,218.000000,,2013-04-23 13:32:00,
2013-04-23 08:42:00,32.0,21.0,-100.00,NNW,344,5.0,8.0,63,0.00,,,0.05,218.000000,,2013-04-23 13:42:00,
2013-04-23 08:52:00,32.0,21.0,-100.00,NNW,344,5.0,8.0,63,0.00,,,0.05,218.000000,,2013-04-23 13:52:00,
2013-04-23 09:02:00,32.0,21.0,-100.00,NNW,344,5.0,8.0,63,0.00,,,0.05,218.000000,,2013-04-23 14:02:00,
2013-04-23 09:32:00,34.0,16.0,-100.00,NNW,342,5.0,11.0,48,0.00,,,0.02,431.000000,,2013-04-23 14:32:00,
2013-04-23 09:42:00,34.0,16.0,-100.00,NNW,342,5.0,11.0,48,0.00,,,0.02,431.000000,,2013-04-23 14:42:00,
2013-04-23 09:52:00,34.0,16.0,-100.00,NNW,342,5.0,11.0,48,0.00,,,0.02,431.000000,,2013-04-23 14:52:00,
2013-04-23 10:01:00,34.0,16.0,-100.00,NNW,342,5.0,11.0,48,0.00,,,0.02,431.000000,,2013-04-23 15:01:00,
2013-04-23 10:32:00,37.0,14.0,-100.00,North,356,6.0,13.0,38,0.00,,,0.00,599.000000,,2013-04-23 15:32:00,
2013-04-23 10:43:00,37.0,14.0,-100.00,North,356,6.0,13.0,38,0.00,,,0.00,599.000000,,2013-04-23 15:43:00,
2013-04-23 10:53:00,37.0,14.0,-100.00,North,356,6.0,13.0,38,0.00,,,0.00,599.000000,,2013-04-23 15:53:00,
2013-04-23 11:03:00,37.0,14.0,-100.00,North,356,6.0,13.0,38,0.00,,,0.00,599.000000,,2013-04-23 16:03:00,
2013-04-23 11:34:00,40.0,17.0,-100.00,NNW,334,7.0,15.0,39,0.00,,,0.00,721.000000,,2013-04-23 16:34:00,
2013-04-23 11:43:00,40.0,17.0,-100.00,NNW,334,7.0,15.0,39,0.00,,,0.00,721.000000,,2013-04-23 16:43:00,
2013-04-23 11:53:00,40.0,17.0,-100.00,NNW,334,7.0,15.0,39,0.00,,,0.00,721.000000,,2013-04-23 16:53:00,
2013-04-23 12:02:00,40.0,17.0,-100.00,NNW,334,7.0,15.0,39,0.00,,,0.00,721.000000,,2013-04-23 17:02:00,
2013-04-23 12:33:00,41.0,12.0,-100.00,NW,317,7.0,18.0,30,0.00,,,0.00,956.000000,,2013-04-23 17:33:00,
2013-04-23 12:43:00,41.0,12.0,-100.00,NW,317,7.0,18.0,30,0.00,,,0.00,956.000000,,2013-04-23 17:43:00,
2013-04-23 12:53:00,41.0,12.0,-100.00,NW,317,7.0,18.0,30,0.00,,,0.00,956.000000,,2013-04-23 17:53:00,
2013-04-23 13:02:00,41.0,12.0,-100.00,NW,317,7.0,18.0,30,0.00,,,0.00,956.000000,,2013-04-23 18:02:00,
2013-04-23 13:22:00,43.0,12.0,-100.00,WNW,295,7.0,13.0,28,0.00,,,0.00,1037.000000,,2013-04-23 18:22:00,
2013-04-23 13:32:00,43.0,12.0,-100.00,WNW,295,7.0,13.0,28,0.00,,,0.00,1037.000000,,2013-04-23 18:32:00,
2013-04-23 13:42:00,43.0,12.0,-100.00,WNW,295,7.0,13.0,28,0.00,,,0.00,1037.000000,,2013-04-23 18:42:00,
2013-04-23 13:52:00,43.0,12.0,-100.00,WNW,295,7.0,13.0,28,0.00,,,0.00,1037.000000,,2013-04-23 18:52:00,
2013-04-23 14:02:00,43.0,12.0,-100.00,WNW,295,7.0,13.0,28,0.00,,,0.00,1037.000000,,2013-04-23 19:02:00,
2013-04-23 14:22:00,42.0,10.0,-100.00,NW,313,8.0,18.0,27,0.00,,,0.00,1028.000000,,2013-04-23 19:22:00,
2013-04-23 14:32:00,42.0,10.0,-100.00,NW,313,8.0,18.0,27,0.00,,,0.00,1028.000000,,2013-04-23 19:32:00,
2013-04-23 14:42:00,42.0,10.0,-100.00,NW,313,8.0,18.0,27,0.00,,,0.00,1028.000000,,2013-04-23 19:42:00,
2013-04-23 14:52:00,42.0,10.0,-100.00,NW,313,8.0,18.0,27,0.00,,,0.00,1028.000000,,2013-04-23 19:52:00,
2013-04-23 15:01:00,42.0,10.0,-100.00,NW,313,8.0,18.0,27,0.00,,,0.00,1028.000000,,2013-04-23 20:01:00,
2013-04-23 15:32:00,43.0,11.0,-100.00,NNW,340,7.0,15.0,27,0.00,,,0.00,965.000000,,2013-04-23 20:32:00,
2013-04-23 15:42:00,43.0,11.0,-100.00,NNW,340,7.0,15.0,27,0.00,,,0.00,965.000000,,2013-04-23 20:42:00,
2013-04-23 15:52:00,43.0,11.0,-100.00,NNW,340,7.0,15.0,27,0.00,,,0.00,965.000000,,2013-04-23 20:52:00,
2013-04-23 16:02:00,43.0,11.0,-100.00,NNW,340,7.0,15.0,27,0.00,,,0.00,965.000000,,2013-04-23 21:02:00,
2013-04-23 16:33:00,43.0,11.0,-100.00,NNW,343,7.0,15.0,27,0.00,,,0.00,825.000000,,2013-04-23 21:33:00,
2013-04-23 16:43:00,43.0,11.0,-100.00,NNW,343,7.0,15.0,27,0.00,,,0.00,825.000000,,2013-04-23 21:43:00,
2013-04-23 16:52:00,43.0,11.0,-100.00,NNW,343,7.0,15.0,27,0.00,,,0.00,825.000000,,2013-04-23 21:52:00,
2013-04-23 17:03:00,43.0,11.0,-100.00,NNW,343,7.0,15.0,27,0.00,,,0.00,825.000000,,2013-04-23 22:03:00,
2013-04-23 17:23:00,43.0,10.0,-100.00,NW,304,7.0,13.0,26,0.00,,,0.00,678.000000,,2013-04-23 22:23:00,
2013-04-23 17:33:00,43.0,10.0,-100.00,NW,304,7.0,13.0,26,0.00,,,0.00,678.000000,,2013-04-23 22:33:00,
2013-04-23 17:42:00,43.0,10.0,-100.00,NW,304,7.0,13.0,26,0.00,,,0.00,678.000000,,2013-04-23 22:42:00,
2013-04-23 17:52:00,43.0,10.0,-100.00,NW,304,7.0,13.0,26,0.00,,,0.00,678.000000,,2013-04-23 22:52:00,
2013-04-23 18:03:00,43.0,10.0,-100.00,NW,304,7.0,13.0,26,0.00,,,0.00,678.000000,,2013-04-23 23:03:00,
2013-04-23 18:22:00,42.0,9.0,-100.00,NNW,348,6.0,12.0,25,0.00,,,0.00,479.000000,,2013-04-23 23:22:00,
2013-04-23 18:32:00,42.0,9.0,-100.00,NNW,348,6.0,12.0,25,0.00,,,0.00,479.000000,,2013-04-23 23:32:00,
2013-04-23 18:42:00,42.0,9.0,-100.00,NNW,348,6.0,12.0,25,0.00,,,0.00,479.000000,,2013-04-23 23:42:00,
2013-04-23 18:52:00,42.0,9.0,-100.00,NNW,348,6.0,12.0,25,0.00,,,0.00,479.000000,,2013-04-23 23:52:00,
2013-04-23 19:01:00,42.0,9.0,-100.00,NNW,348,6.0,12.0,25,0.00,,,0.00,479.000000,,2013-04-24 00:01:00,
2013-04-23 19:22:00,39.0,8.0,-100.00,NNW,334,5.0,11.0,27,0.00,,,0.00,266.000000,,2013-04-24 00:22:00,
2013-04-23 19:32:00,39.0,8.0,-100.00,NNW,334,5.0,11.0,27,0.00,,,0.00,266.000000,,2013-04-24 00:32:00,
2013-04-23 19:42:00,39.0,8.0,-100.00,NNW,334,5.0,11.0,27,0.00,,,0.00,266.000000,,2013-04-24 00:42:00,
2013-04-23 19:52:00,39.0,8.0,-100.00,NNW,334,5.0,11.0,27,0.00,,,0.00,266.000000,,2013-04-24 00:52:00,
2013-04-23 20:01:00,39.0,8.0,-100.00,NNW,334,5.0,11.0,27,0.00,,,0.00,266.000000,,2013-04-24 01:01:00,
2013-04-23 20:21:00,34.0,9.0,-100.00,NNW,347,3.0,9.0,34,0.00,,,0.00,54.000000,,2013-04-24 01:21:00,
2013-04-23 20:32:00,34.0,9.0,-100.00,NNW,347,3.0,9.0,34,0.00,,,0.00,54.000000,,2013-04-24 01:32:00,
2013-04-23 20:43:00,34.0,9.0,-100.00,NNW,347,3.0,9.0,34,0.00,,,0.00,54.000000,,2013-04-24 01:43:00,
2013-04-23 20:52:00,34.0,9.0,-100.00,NNW,347,3.0,9.0,34,0.00,,,0.00,54.000000,,2013-04-24 01:52:00,
2013-04-23 21:02:00,34.0,9.0,-100.00,NNW,347,3.0,9.0,34,0.00,,,0.00,54.000000,,2013-04-24 02:02:00,
2013-04-23 21:04:00,30.0,8.0,-100.00,NNW,343,2.0,4.0,39,0.00,,,0.00,2.000000,,2013-04-24 02:04:00,
2013-04-23 21:42:00,30.0,8.0,-100.00,NNW,343,2.0,4.0,39,0.00,,,0.00,2.000000,,2013-04-24 02:42:00,
2013-04-23 21:50:00,30.0,8.0,-100.00,NNW,343,2.0,4.0,39,0.00,,,0.00,2.000000,,2013-04-24 02:50:00,
2013-04-23 22:00:00,30.0,8.0,-100.00,NNW,343,2.0,4.0,39,0.00,,,0.00,2.000000,,2013-04-24 03:00:00,
2013-04-23 22:43:00,29.0,8.0,-100.00,NW,313,1.0,4.0,40,0.00,,,0.00,0.000000,,2013-04-24 03:43:00,
2013-04-23 23:01:00,29.0,8.0,-100.00,NW,313,1.0,4.0,40,0.00,,,0.00,0.000000,,2013-04-24 04:01:00,
2013-04-23 23:33:00,28.0,8.0,-100.00,WSW,246,2.0,3.0,42,0.00,,,0.00,0.000000,,2013-04-24 04:33:00,
2013-04-23 23:43:00,28.0,8.0,-100.00,WSW,246,2.0,3.0,42,0.00,,,0.00,0.000000,,2013-04-24 04:43:00,
2013-04-23 23:53:00,28.0,8.0,-100.00,WSW,246,2.0,3.0,42,0.00,,,0.00,0.000000,,2013-04-24 04:53:00,